Time;durP1;ratioP1;P1;durP2;ratioP2;P2;SDS_P1;SDS_P2;PMS_P1;PMS_P2;Temp;Humidity;BMP_temperature;BMP_pressure;BME280_temperature;BME280_humidity;BME280_pressure;Samples;Min_cycle;Max_cycle;Signal;HPM_P1;HPM_P2
2023/05/09 00:00:19;;;;;;;24.80;15.00;;;;;;;;;;4982780;28;20451;-88
2023/05/09 00:02:44;;;;;;;34.20;15.67;;;13.50;99.90;;;;;;4977886;28;20482;-87
2023/05/09 00:05:10;;;;;;;23.80;12.97;;;;;;;;;;4973926;28;20489;-86
2023/05/09 00:07:36;;;;;;;23.60;14.00;;;;;;;;;;4981724;28;20192;-87
2023/05/09 00:10:02;;;;;;;25.40;14.90;;;13.50;99.90;;;;;;4970151;28;20450;-85
2023/05/09 00:12:28;;;;;;;24.40;13.30;;;;;;;;;;4978044;28;20459;-87
2023/05/09 00:14:55;;;;;;;27.30;13.70;;;;;;;;;;4980104;28;20517;-88
2023/05/09 00:17:22;;;;;;;23.60;13.07;;;13.40;99.90;;;;;;4978709;28;20423;-87
2023/05/09 00:19:48;;;;;;;26.13;12.93;;;;;;;;;;4981400;28;20493;-86
2023/05/09 00:22:16;;;;;;;21.77;13.33;;;13.40;99.90;;;;;;4979307;28;20450;-88
2023/05/09 00:24:42;;;;;;;21.13;12.57;;;;;;;;;;4984480;28;20441;-87
2023/05/09 00:27:08;;;;;;;30.27;14.57;;;13.40;99.90;;;;;;4985448;28;20427;-87
2023/05/09 00:29:34;;;;;;;23.43;11.90;;;;;;;;;;4981229;28;20434;-87
2023/05/09 00:32:00;;;;;;;21.77;11.87;;;;;;;;;;4971303;28;20462;-85
2023/05/09 00:34:26;;;;;;;23.67;12.20;;;;;;;;;;4978349;28;20584;-86
2023/05/09 00:36:52;;;;;;;26.97;13.67;;;;;;;;;;4965336;28;20970;-88
2023/05/09 00:39:18;;;;;;;26.80;16.50;;;;;;;;;;4976510;28;20427;-87
2023/05/09 00:41:44;;;;;;;27.33;15.03;;;;;;;;;;4974766;28;20533;-84
2023/05/09 00:44:10;;;;;;;30.27;14.67;;;;;;;;;;4989038;28;20523;-86
2023/05/09 00:46:36;;;;;;;31.23;17.13;;;;;;;;;;5002060;28;20461;-85
2023/05/09 00:49:03;;;;;;;37.23;18.93;;;;;;;;;;4976989;28;20435;-86
2023/05/09 00:51:29;;;;;;;29.83;15.80;;;;;;;;;;4973195;28;20485;-87
2023/05/09 00:53:55;;;;;;;34.27;16.90;;;;;;;;;;4974057;28;20505;-89
2023/05/09 00:56:21;;;;;;;35.87;18.60;;;;;;;;;;4974984;28;20455;-88
2023/05/09 00:58:47;;;;;;;33.23;16.10;;;;;;;;;;4970762;28;22300;-88
2023/05/09 01:01:12;;;;;;;33.90;17.73;;;13.90;99.90;;;;;;4973388;28;20462;-86
2023/05/09 01:03:39;;;;;;;31.47;15.67;;;;;;;;;;4972409;28;20459;-88
2023/05/09 01:06:57;;;;;;;32.73;17.70;;;14.00;99.90;;;;;;4970709;28;20187;-87
2023/05/09 01:09:54;;;;;;;33.17;16.47;;;14.00;99.90;;;;;;4930277;28;20445;-88
2023/05/09 01:12:59;;;;;;;29.80;15.80;;;14.00;99.90;;;;;;4976151;28;20549;-86
2023/05/09 01:15:37;;;;;;;33.47;18.20;;;14.10;99.90;;;;;;4966618;28;20470;-88
2023/05/09 01:18:15;;;;;;;28.40;15.87;;;14.20;99.90;;;;;;4972481;28;20454;-88
2023/05/09 01:20:53;;;;;;;36.67;18.60;;;15.20;99.90;;;;;;4968717;28;20447;-88
2023/05/09 01:23:37;;;;;;;37.20;19.77;;;14.20;99.90;;;;;;4981988;28;20441;-88
2023/05/09 01:26:07;;;;;;;28.97;15.67;;;14.20;99.90;;;;;;4968875;28;20430;-87
2023/05/09 01:29:00;;;;;;;30.27;19.27;;;14.20;99.90;;;;;;4968560;28;20803;-86
2023/05/09 01:31:26;;;;;;;38.30;18.10;;;;;;;;;;4979725;28;20497;-87
2023/05/09 01:33:57;;;;;;;34.30;17.43;;;14.10;99.90;;;;;;4973054;28;20542;-87
2023/05/09 01:36:24;;;;;;;37.50;18.07;;;14.10;99.90;;;;;;4967436;28;20513;-87
2023/05/09 01:38:51;;;;;;;34.77;18.83;;;14.20;99.90;;;;;;4975963;28;20450;-86
2023/05/09 01:41:17;;;;;;;37.53;18.67;;;;;;;;;;4972139;28;20549;-87
2023/05/09 01:43:44;;;;;;;33.70;16.90;;;14.20;99.90;;;;;;4966507;28;20435;-88
2023/05/09 01:46:11;;;;;;;32.33;17.90;;;14.20;99.90;;;;;;4964213;28;20528;-86
2023/05/09 01:48:37;;;;;;;32.77;16.80;;;;;;;;;;4970031;28;20590;-86
2023/05/09 01:51:05;;;;;;;33.13;18.20;;;14.20;99.90;;;;;;4966310;28;20438;-87
2023/05/09 01:53:33;;;;;;;29.03;17.70;;;14.20;99.90;;;;;;4973160;28;20561;-86
2023/05/09 01:55:59;;;;;;;36.47;20.60;;;14.20;99.90;;;;;;4968455;28;21374;-87
2023/05/09 01:58:25;;;;;;;32.60;17.83;;;;;;;;;;4969214;28;20537;-86
2023/05/09 02:00:51;;;;;;;34.77;20.20;;;14.10;99.90;;;;;;4976926;28;20486;-87
2023/05/09 02:03:17;;;;;;;32.27;17.40;;;;;;;;;;4983242;28;20434;-87
2023/05/09 02:05:44;;;;;;;34.80;17.57;;;;;;;;;;4979347;28;20935;-87
2023/05/09 02:08:12;;;;;;;40.67;20.10;;;14.00;99.90;;;;;;4978181;28;20438;-87
2023/05/09 02:10:38;;;;;;;33.93;18.40;;;;;;;;;;4978410;28;21516;-88
2023/05/09 02:13:04;;;;;;;32.77;17.30;;;;;;;;;;4996271;28;20559;-88
2023/05/09 02:15:30;;;;;;;37.73;19.30;;;;;;;;;;4974933;28;21432;-88
2023/05/09 02:17:56;;;;;;;35.80;19.60;;;;;;;;;;4979956;28;20510;-88
2023/05/09 02:20:22;;;;;;;36.63;21.03;;;;;;;;;;4977995;28;20430;-88
2023/05/09 02:22:48;;;;;;;37.57;19.17;;;;;;;;;;4979400;28;20454;-88
2023/05/09 02:25:14;;;;;;;34.07;19.43;;;;;;;;;;4975637;28;20439;-88
2023/05/09 02:27:42;;;;;;;30.37;18.97;;;14.20;99.90;;;;;;4982315;28;20430;-87
2023/05/09 02:30:13;;;;;;;32.57;16.70;;;14.30;99.90;;;;;;4982277;28;20529;-87
2023/05/09 02:32:41;;;;;;;28.20;15.57;;;14.20;99.90;;;;;;4979061;28;20504;-87
2023/05/09 02:35:08;;;;;;;38.00;18.87;;;14.10;99.90;;;;;;4978323;28;20472;-87
2023/05/09 02:37:35;;;;;;;27.30;15.73;;;;;;;;;;4988922;28;20494;-88
2023/05/09 02:40:01;;;;;;;37.93;19.27;;;;;;;;;;4984229;28;20430;-87
2023/05/09 02:42:29;;;;;;;39.00;20.07;;;14.10;99.90;;;;;;4982107;28;20461;-87
2023/05/09 02:44:55;;;;;;;29.27;16.57;;;;;;;;;;4986137;28;20474;-87
2023/05/09 02:47:21;;;;;;;35.63;20.10;;;14.00;99.90;;;;;;4978016;28;20572;-86
2023/05/09 02:49:47;;;;;;;35.20;18.90;;;;;;;;;;4988612;28;20458;-87
2023/05/09 02:52:13;;;;;;;34.07;19.53;;;;;;;;;;4969615;28;20464;-87
2023/05/09 02:54:39;;;;;;;28.53;18.93;;;;;;;;;;4972878;28;20439;-87
2023/05/09 02:57:05;;;;;;;32.27;17.17;;;;;;;;;;4985826;28;20497;-86
2023/05/09 02:59:31;;;;;;;35.77;18.63;;;;;;;;;;4984851;28;20480;-86
2023/05/09 03:01:57;;;;;;;35.97;19.50;;;;;;;;;;4974855;28;20521;-87
2023/05/09 03:04:24;;;;;;;30.50;18.80;;;;;;;;;;4973404;28;20524;-87
2023/05/09 03:06:50;;;;;;;36.60;20.00;;;;;;;;;;4976525;28;20438;-88
2023/05/09 03:09:16;;;;;;;39.03;20.07;;;;;;;;;;4982326;28;20438;-87
2023/05/09 03:11:42;;;;;;;31.30;16.67;;;;;;;;;;4983131;28;21025;-88
2023/05/09 03:14:09;;;;;;;31.88;18.73;;;;;;;;;;4983866;28;20463;-87
2023/05/09 03:16:35;;;;;;;30.43;17.20;;;;;;;;;;4977991;28;20221;-88
2023/05/09 03:19:02;;;;;;;29.10;17.53;;;13.90;99.90;;;;;;4975218;28;20439;-87
2023/05/09 03:21:28;;;;;;;32.50;17.63;;;;;;;;;;4981709;28;20466;-88
2023/05/09 03:23:54;;;;;;;36.97;17.93;;;;;;;;;;4980840;28;20430;-87
2023/05/09 03:26:20;;;;;;;36.17;19.60;;;;;;;;;;4989386;28;20463;-87
2023/05/09 03:28:47;;;;;;;34.97;18.67;;;;;;;;;;4986538;28;20512;-89
2023/05/09 03:31:13;;;;;;;37.27;18.37;;;;;;;;;;4982463;28;20446;-87
2023/05/09 03:33:39;;;;;;;33.00;17.30;;;;;;;;;;4971273;28;20507;-87
2023/05/09 03:36:05;;;;;;;33.37;19.33;;;;;;;;;;4977080;28;21094;-87
2023/05/09 03:38:31;;;;;;;32.80;19.20;;;;;;;;;;4979513;28;20435;-87
2023/05/09 03:40:57;;;;;;;34.37;17.93;;;;;;;;;;4976130;28;20435;-87
2023/05/09 03:43:23;;;;;;;35.67;20.50;;;;;;;;;;4977365;28;20446;-87
2023/05/09 03:45:49;;;;;;;30.63;17.67;;;;;;;;;;4971264;28;20435;-87
2023/05/09 03:48:15;;;;;;;35.23;17.63;;;;;;;;;;4971576;28;20442;-86
2023/05/09 03:50:41;;;;;;;35.40;19.63;;;;;;;;;;4971453;28;20445;-85
2023/05/09 03:53:07;;;;;;;43.37;19.60;;;;;;;;;;4977706;28;20457;-88
2023/05/09 03:55:33;;;;;;;43.43;18.10;;;;;;;;;;4972747;28;20470;-87
2023/05/09 03:57:59;;;;;;;33.90;19.07;;;;;;;;;;4971638;28;20457;-86
2023/05/09 04:00:25;;;;;;;31.40;17.00;;;;;;;;;;4974821;28;20438;-87
2023/05/09 04:02:51;;;;;;;34.07;18.67;;;;;;;;;;4981784;28;20624;-87
2023/05/09 04:05:17;;;;;;;33.50;18.33;;;;;;;;;;4973302;28;20437;-86
2023/05/09 04:07:43;;;;;;;36.90;20.27;;;;;;;;;;4976286;28;20542;-87
2023/05/09 04:10:09;;;;;;;32.23;17.17;;;;;;;;;;4972371;28;20496;-87
2023/05/09 04:12:35;;;;;;;33.83;18.00;;;;;;;;;;4972521;28;20457;-88
2023/05/09 04:15:02;;;;;;;28.60;16.50;;;13.90;99.90;;;;;;4969954;28;20488;-87
2023/05/09 04:17:28;;;;;;;39.03;19.57;;;;;;;;;;4964579;28;20447;-87
2023/05/09 04:19:55;;;;;;;37.60;20.13;;;;;;;;;;4967643;28;20465;-87
2023/05/09 04:22:21;;;;;;;35.80;19.50;;;;;;;;;;4975983;28;20520;-88
2023/05/09 04:24:46;;;;;;;36.80;19.03;;;;;;;;;;4977071;28;20927;-88
2023/05/09 04:27:12;;;;;;;33.10;19.47;;;;;;;;;;4966598;28;20443;-88
2023/05/09 04:29:38;;;;;;;37.30;21.00;;;;;;;;;;4971602;28;20438;-87
2023/05/09 04:32:04;;;;;;;30.07;16.60;;;;;;;;;;4963282;28;20493;-87
2023/05/09 04:34:31;;;;;;;35.77;17.77;;;;;;;;;;4969039;28;20469;-88
2023/05/09 04:36:57;;;;;;;32.60;18.23;;;;;;;;;;4966466;28;21029;-88
2023/05/09 04:39:23;;;;;;;37.50;17.33;;;;;;;;;;4967084;28;20488;-86
2023/05/09 04:41:49;;;;;;;34.93;16.13;;;;;;;;;;4971013;28;20454;-87
2023/05/09 04:44:16;;;;;;;35.80;16.70;;;15.00;99.90;;;;;;4960185;28;20509;-86
2023/05/09 04:46:42;;;;;;;26.13;15.80;;;;;;;;;;4960438;28;20426;-87
2023/05/09 04:49:08;;;;;;;28.53;17.80;;;;;;;;;;4963611;28;20913;-87
2023/05/09 04:51:34;;;;;;;29.20;15.97;;;;;;;;;;4957068;28;20466;-87
2023/05/09 04:54:00;;;;;;;26.87;16.80;;;;;;;;;;4958671;28;20558;-87
2023/05/09 04:56:26;;;;;;;29.77;15.93;;;;;;;;;;4967411;28;20466;-88
2023/05/09 04:58:52;;;;;;;27.30;16.27;;;;;;;;;;4966817;28;20442;-87
2023/05/09 05:01:18;;;;;;;28.13;16.57;;;;;;;;;;4959479;28;20490;-87
2023/05/09 05:03:44;;;;;;;27.73;14.90;;;;;;;;;;4962032;28;20434;-86
2023/05/09 05:06:13;;;;;;;34.73;16.60;;;;;;;;;;4978430;28;20465;-87
2023/05/09 05:08:39;;;;;;;28.50;16.93;;;;;;;;;;4977446;28;20441;-88
2023/05/09 05:11:04;;;;;;;27.90;16.00;;;;;;;;;;4979376;28;20454;-87
2023/05/09 05:13:31;;;;;;;30.60;17.30;;;;;;;;;;4975465;28;20489;-86
2023/05/09 05:15:57;;;;;;;33.43;18.50;;;;;;;;;;4970913;28;20474;-87
2023/05/09 05:18:23;;;;;;;30.70;16.63;;;;;;;;;;4976872;28;20429;-87
2023/05/09 05:20:49;;;;;;;34.07;18.23;;;;;;;;;;4975894;28;20897;-88
2023/05/09 05:23:15;;;;;;;32.33;17.23;;;;;;;;;;4977135;28;20454;-87
2023/05/09 05:25:41;;;;;;;28.63;15.63;;;;;;;;;;4973523;28;20450;-86
2023/05/09 05:28:07;;;;;;;31.73;18.43;;;;;;;;;;4957448;28;20513;-87
2023/05/09 05:30:33;;;;;;;31.70;17.50;;;;;;;;;;4974438;28;20441;-87
2023/05/09 05:32:59;;;;;;;32.93;17.40;;;;;;;;;;4970555;28;20451;-88
2023/05/09 05:35:27;;;;;;;30.70;17.50;;;;;;;;;;4966225;28;20471;-88
2023/05/09 05:37:53;;;;;;;35.17;20.07;;;;;;;;;;4973308;28;20496;-87
2023/05/09 05:40:19;;;;;;;32.73;18.20;;;;;;;;;;4968540;28;20450;-86
2023/05/09 05:42:45;;;;;;;33.40;18.43;;;;;;;;;;4960714;28;20550;-88
2023/05/09 05:45:11;;;;;;;33.37;15.80;;;;;;;;;;4954028;28;20456;-88
2023/05/09 05:47:37;;;;;;;31.57;16.70;;;;;;;;;;4968049;28;20442;-86
2023/05/09 05:50:10;;;;;;;26.43;17.33;;;15.00;99.90;;;;;;4966021;28;20461;-86
2023/05/09 05:52:36;;;;;;;34.70;18.17;;;;;;;;;;4970631;28;20553;-85
2023/05/09 05:55:02;;;;;;;30.03;16.47;;;;;;;;;;4977228;28;20462;-87
2023/05/09 05:57:28;;;;;;;30.03;17.37;;;;;;;;;;4973845;28;20502;-86
2023/05/09 05:59:54;;;;;;;34.20;17.27;;;;;;;;;;4974952;28;20439;-87
2023/05/09 06:02:20;;;;;;;33.67;16.00;;;;;;;;;;4955126;28;20454;-87
2023/05/09 06:04:46;;;;;;;32.83;16.43;;;;;;;;;;4974608;28;20502;-86
2023/05/09 06:07:12;;;;;;;26.23;15.20;;;;;;;;;;4989760;28;20462;-84
2023/05/09 06:09:38;;;;;;;32.53;16.67;;;;;;;;;;4989198;28;21487;-84
2023/05/09 06:12:05;;;;;;;27.07;16.20;;;;;;;;;;4975272;28;20463;-87
2023/05/09 06:14:31;;;;;;;34.67;17.90;;;;;;;;;;4972036;28;20441;-85
2023/05/09 06:16:57;;;;;;;32.40;18.10;;;15.40;99.90;;;;;;4977122;28;20470;-86
2023/05/09 06:19:23;;;;;;;28.33;16.20;;;;;;;;;;4984254;28;20502;-86
2023/05/09 06:21:49;;;;;;;32.57;18.67;;;;;;;;;;4977001;28;21022;-86
2023/05/09 06:24:15;;;;;;;29.23;15.20;;;;;;;;;;4976340;28;20521;-86
2023/05/09 06:26:41;;;;;;;26.20;15.50;;;;;;;;;;4978963;28;20469;-85
2023/05/09 06:29:07;;;;;;;27.77;15.73;;;;;;;;;;4973578;28;20477;-86
2023/05/09 06:31:37;;;;;;;30.80;15.37;;;;;;;;;;4981015;28;20945;-84
2023/05/09 06:34:03;;;;;;;26.10;14.97;;;;;;;;;;4989198;28;20446;-85
2023/05/09 06:36:29;;;;;;;27.47;15.23;;;;;;;;;;4975162;28;20845;-86
2023/05/09 06:38:55;;;;;;;25.63;16.20;;;;;;;;;;4978044;28;20769;-86
2023/05/09 06:41:21;;;;;;;30.60;15.90;;;;;;;;;;4970689;28;20542;-86
2023/05/09 06:43:47;;;;;;;61.90;20.60;;;;;;;;;;4974975;28;20427;-85
2023/05/09 06:46:13;;;;;;;27.50;16.17;;;;;;;;;;4974622;28;20820;-84
2023/05/09 06:48:39;;;;;;;27.20;14.60;;;;;;;;;;4984304;28;20442;-86
2023/05/09 06:51:05;;;;;;;25.97;15.30;;;;;;;;;;4978342;28;20445;-87
2023/05/09 06:53:31;;;;;;;20.40;13.10;;;;;;;;;;4983327;28;20992;-88
2023/05/09 06:55:57;;;;;;;24.30;15.20;;;;;;;;;;4981717;28;20923;-88
2023/05/09 06:58:23;;;;;;;61.40;19.40;;;;;;;;;;4987467;28;20916;-86
2023/05/09 07:00:49;;;;;;;31.97;15.87;;;;;;;;;;4970989;28;20550;-85
2023/05/09 07:03:15;;;;;;;24.00;15.20;;;;;;;;;;4970519;28;21011;-85
2023/05/09 07:05:41;;;;;;;24.70;13.93;;;;;;;;;;4966585;28;20438;-85
2023/05/09 07:08:07;;;;;;;25.73;15.20;;;;;;;;;;4975301;28;20939;-88
2023/05/09 07:10:33;;;;;;;23.70;14.97;;;;;;;;;;4976924;28;20549;-86
2023/05/09 07:12:59;;;;;;;26.20;14.53;;;;;;;;;;4978248;28;20545;-86
2023/05/09 07:15:25;;;;;;;24.17;14.23;;;;;;;;;;4973599;28;20453;-85
2023/05/09 07:17:51;;;;;;;22.63;14.10;;;;;;;;;;4968906;28;20477;-87
2023/05/09 07:20:17;;;;;;;23.00;12.70;;;19.20;99.90;;;;;;4976015;28;20936;-88
2023/05/09 07:22:43;;;;;;;25.67;14.67;;;;;;;;;;4979991;28;20510;-86
2023/05/09 07:25:09;;;;;;;24.23;13.30;;;19.30;99.90;;;;;;4977557;28;20210;-87
2023/05/09 07:27:35;;;;;;;25.03;13.90;;;;;;;;;;4979887;28;20972;-87
2023/05/09 07:30:02;;;;;;;22.87;12.80;;;21.10;99.90;;;;;;4975951;28;20230;-87
2023/05/09 07:32:28;;;;;;;21.50;12.20;;;;;;;;;;4982926;28;20985;-85
2023/05/09 07:34:54;;;;;;;20.83;13.37;;;;;;;;;;4976964;28;21356;-86
2023/05/09 07:37:20;;;;;;;21.23;13.07;;;;;;;;;;4974032;28;21034;-87
2023/05/09 07:39:46;;;;;;;18.60;11.20;;;;;;;;;;4978806;28;20427;-85
2023/05/09 07:42:12;;;;;;;20.23;11.27;;;;;;;;;;4973502;28;20502;-85
2023/05/09 07:44:38;;;;;;;20.13;12.43;;;;;;;;;;4989077;28;20498;-89
2023/05/09 07:47:04;;;;;;;16.97;12.20;;;;;;;;;;4979706;28;20439;-87
2023/05/09 07:49:31;;;;;;;23.20;13.57;;;;;;;;;;4974224;28;20526;-87
2023/05/09 07:51:57;;;;;;;24.10;14.03;;;;;;;;;;4975363;28;20478;-87
2023/05/09 07:54:23;;;;;;;23.20;13.97;;;;;;;;;;4958545;28;20450;-86
2023/05/09 07:56:49;;;;;;;16.77;11.10;;;;;;;;;;4977518;28;20467;-87
2023/05/09 07:59:15;;;;;;;20.23;12.17;;;;;;;;;;4969228;28;20490;-88
2023/05/09 08:01:41;;;;;;;21.07;12.60;;;;;;;;;;4989081;28;20453;-86
2023/05/09 08:04:08;;;;;;;12.80;8.10;;;;;;;;;;4976644;28;20435;-87
2023/05/09 08:06:34;;;;;;;17.33;11.50;;;;;;;;;;4977865;28;20445;-86
2023/05/09 08:09:00;;;;;;;18.53;10.90;;;;;;;;;;4976299;28;20441;-86
2023/05/09 08:11:26;;;;;;;19.17;11.60;;;;;;;;;;4971975;28;20477;-85
2023/05/09 08:13:52;;;;;;;14.33;9.20;;;;;;;;;;4980020;28;20521;-86
2023/05/09 08:16:18;;;;;;;16.43;11.20;;;;;;;;;;4976815;28;20466;-87
2023/05/09 08:18:44;;;;;;;18.00;11.43;;;;;;;;;;4975403;28;21170;-87
2023/05/09 08:21:10;;;;;;;16.80;11.23;;;;;;;;;;4976763;28;21050;-85
2023/05/09 08:23:37;;;;;;;18.47;12.70;;;;;;;;;;4977644;28;20464;-87
2023/05/09 08:26:03;;;;;;;18.57;12.10;;;;;;;;;;4969001;28;20549;-88
2023/05/09 08:28:29;;;;;;;20.60;12.30;;;;;;;;;;4972811;28;20523;-87
2023/05/09 08:30:55;;;;;;;18.63;11.50;;;;;;;;;;4981422;28;20438;-87
2023/05/09 08:33:22;;;;;;;21.00;12.80;;;;;;;;;;4974790;28;20449;-89
2023/05/09 08:35:55;;;;;;;21.13;13.23;;;25.30;99.90;;;;;;4969585;28;20481;-87
2023/05/09 08:38:21;;;;;;;18.30;11.73;;;;;;;;;;4974493;28;20451;-87
2023/05/09 08:40:47;;;;;;;19.13;12.03;;;;;;;;;;4971681;28;20430;-87
2023/05/09 08:43:16;;;;;;;18.70;12.70;;;28.00;99.90;;;;;;4974787;28;20481;-88
2023/05/09 08:45:46;;;;;;;23.13;12.73;;;27.50;99.90;;;;;;4981315;28;21094;-85
2023/05/09 08:48:15;;;;;;;19.97;13.33;;;27.10;99.90;;;;;;4997016;28;20445;-86
2023/05/09 08:50:41;;;;;;;18.57;11.37;;;;;;;;;;4998362;28;21458;-85
2023/05/09 08:53:07;;;;;;;18.27;9.90;;;;;;;;;;4975710;28;20457;-89
2023/05/09 08:55:33;;;;;;;15.07;11.27;;;;;;;;;;4977142;28;20660;-89
2023/05/09 08:57:59;;;;;;;13.53;10.70;;;;;;;;;;4966445;28;20431;-90
2023/05/09 09:00:26;;;;;;;16.13;10.50;;;24.10;99.90;;;;;;4975618;28;20435;-88
2023/05/09 09:02:52;;;;;;;20.33;13.17;;;;;;;;;;4977357;28;20462;-87
2023/05/09 09:05:18;;;;;;;24.03;12.47;;;;;;;;;;4976508;28;20469;-87
2023/05/09 09:07:44;;;;;;;19.90;12.73;;;;;;;;;;4970923;28;20474;-88
2023/05/09 09:10:10;;;;;;;20.63;12.73;;;22.80;99.90;;;;;;4980382;28;20443;-87
2023/05/09 09:12:37;;;;;;;22.47;14.03;;;;;;;;;;4970286;28;20466;-86
2023/05/09 09:15:09;;;;;;;19.87;13.20;;;22.90;99.90;;;;;;4964552;28;20522;-88
2023/05/09 09:17:38;;;;;;;12.37;8.13;;;23.00;99.90;;;;;;4980182;28;21709;-87
2023/05/09 09:20:08;;;;;;;14.00;9.47;;;23.00;99.90;;;;;;4974058;28;20442;-86
2023/05/09 09:22:34;;;;;;;19.33;10.93;;;;;;;;;;4973902;28;20476;-87
2023/05/09 09:25:01;;;;;;;15.20;10.73;;;;;;;;;;4964640;28;20435;-86
2023/05/09 09:27:27;;;;;;;21.93;12.07;;;;;;;;;;4969567;28;21292;-87
2023/05/09 09:29:53;;;;;;;17.73;12.13;;;;;;;;;;4972313;28;20436;-85
2023/05/09 09:32:19;;;;;;;18.93;10.70;;;;;;;;;;4981094;28;20470;-85
2023/05/09 09:34:48;;;;;;;17.87;12.00;;;24.70;99.90;;;;;;4973960;28;20430;-88
2023/05/09 09:37:22;;;;;;;16.83;10.33;;;25.70;99.90;;;;;;4973809;28;20969;-87
2023/05/09 09:39:55;;;;;;;17.10;10.43;;;26.50;99.90;;;;;;4977215;28;20444;-87
2023/05/09 09:42:22;;;;;;;17.10;10.90;;;;;;;;;;4965393;28;20465;-87
2023/05/09 09:44:56;;;;;;;15.30;10.30;;;26.30;99.90;;;;;;4969967;28;20437;-87
2023/05/09 09:47:30;;;;;;;16.27;10.20;;;26.40;99.90;;;;;;4970697;28;20438;-88
2023/05/09 09:49:56;;;;;;;16.87;10.57;;;;;;;;;;4968110;28;20443;-88
2023/05/09 09:52:26;;;;;;;16.50;10.57;;;26.00;99.90;;;;;;4972583;28;20507;-88
2023/05/09 09:54:55;;;;;;;16.20;9.73;;;25.50;99.90;;;;;;4968828;28;20940;-87
2023/05/09 09:57:38;;;;;;;18.00;11.70;;;24.80;99.90;;;;;;4960429;28;20440;-85
2023/05/09 10:00:05;;;;;;;14.53;9.90;;;24.10;99.90;;;;;;4975670;28;20439;-86
2023/05/09 10:02:31;;;;;;;14.67;9.30;;;;;;;;;;4974166;28;20453;-89
2023/05/09 10:05:06;;;;;;;17.00;9.60;;;24.50;99.90;;;;;;4968479;28;20443;-86
2023/05/09 10:07:34;;;;;;;15.23;9.93;;;24.40;99.90;;;;;;4976308;28;20457;-87
2023/05/09 10:10:04;;;;;;;16.90;10.40;;;;;;;;;;4974802;28;20466;-87
2023/05/09 10:12:33;;;;;;;19.00;10.33;;;;;;;;;;4971725;28;20459;-87
2023/05/09 10:14:59;;;;;;;14.53;10.03;;;;;;;;;;4971336;28;20534;-87
2023/05/09 10:17:26;;;;;;;12.40;9.37;;;;;;;;;;4969226;28;20554;-85
2023/05/09 10:19:52;;;;;;;13.67;9.70;;;24.50;99.90;;;;;;4966999;28;20518;-87
2023/05/09 10:22:19;;;;;;;12.37;9.00;;;24.80;99.90;;;;;;4972015;28;20471;-86
2023/05/09 10:25:07;;;;;;;13.60;8.37;;;24.80;99.90;;;;;;4970257;28;20439;-88
2023/05/09 10:27:35;;;;;;;16.03;9.10;;;24.10;99.90;;;;;;4969042;28;20539;-87
2023/05/09 10:30:09;;;;;;;14.90;9.60;;;23.90;99.90;;;;;;4982744;28;20501;-86
2023/05/09 10:32:55;;;;;;;13.00;9.30;;;23.70;99.90;;;;;;4974503;28;20466;-86
2023/05/09 10:35:29;;;;;;;15.93;10.33;;;23.80;99.90;;;;;;4981726;28;20501;-87
2023/05/09 10:37:56;;;;;;;15.67;9.43;;;23.80;99.90;;;;;;4976325;28;20422;-87
2023/05/09 10:40:22;;;;;;;11.30;8.20;;;;;;;;;;4975306;28;20470;-85
2023/05/09 10:42:48;;;;;;;13.87;8.73;;;;;;;;;;4980496;28;20455;-87
2023/05/09 10:45:14;;;;;;;11.37;7.70;;;;;;;;;;4969948;28;20440;-85
2023/05/09 10:47:42;;;;;;;11.40;8.47;;;22.80;99.90;;;;;;4978856;28;20473;-88
2023/05/09 10:50:11;;;;;;;11.47;8.00;;;23.10;99.90;;;;;;4977822;28;20886;-87
2023/05/09 10:53:02;;;;;;;12.63;7.80;;;23.30;99.90;;;;;;4976536;28;20541;-87
2023/05/09 10:55:56;;;;;;;12.27;8.40;;;23.80;99.90;;;;;;4976796;28;20470;-87
2023/05/09 10:58:24;;;;;;;13.93;9.87;;;23.90;99.90;;;;;;4976908;28;20437;-87
2023/05/09 11:00:51;;;;;;;13.47;8.93;;;23.80;99.90;;;;;;4966590;28;20438;-86
2023/05/09 11:03:18;;;;;;;11.07;7.47;;;;;;;;;;4979477;28;20565;-87
2023/05/09 11:05:48;;;;;;;11.03;7.63;;;24.10;99.90;;;;;;4969796;28;20458;-86
2023/05/09 11:08:17;;;;;;;12.33;9.13;;;24.50;99.90;;;;;;4988671;28;20447;-88
2023/05/09 11:10:43;;;;;;;13.17;8.47;;;;;;;;;;4982143;28;20563;-86
2023/05/09 11:13:09;;;;;;;15.10;8.53;;;;;;;;;;4980464;28;20611;-85
2023/05/09 11:15:48;;;;;;;13.30;8.80;;;23.80;99.90;;;;;;4976620;28;21272;-85
2023/05/09 11:18:14;;;;;;;13.10;8.40;;;;;;;;;;4979526;28;21327;-86
2023/05/09 11:20:45;;;;;;;12.40;8.67;;;23.60;99.90;;;;;;4974041;28;20439;-84
2023/05/09 11:23:11;;;;;;;13.83;8.97;;;;;;;;;;4995131;28;20565;-85
2023/05/09 11:25:38;;;;;;;12.93;8.93;;;24.00;99.90;;;;;;4977324;28;20534;-85
2023/05/09 11:28:05;;;;;;;13.33;8.33;;;23.90;99.90;;;;;;4992421;28;20458;-85
2023/05/09 11:30:42;;;;;;;15.93;9.60;;;23.80;99.90;;;;;;4995647;28;20432;-86
2023/05/09 11:33:26;;;;;;;13.80;9.70;;;23.80;99.90;;;;;;4987612;28;20462;-89
2023/05/09 11:36:17;;;;;;;13.43;8.90;;;23.60;99.90;;;;;;4973520;28;20496;-86
2023/05/09 11:38:43;;;;;;;13.20;9.20;;;;;;;;;;4977223;28;20431;-87
2023/05/09 11:41:10;;;;;;;14.43;9.00;;;;;;;;;;4979519;28;20434;-86
2023/05/09 11:43:36;;;;;;;14.30;10.40;;;23.50;99.90;;;;;;4977641;28;20435;-86
2023/05/09 11:46:03;;;;;;;13.27;8.03;;;23.40;99.90;;;;;;4976415;28;20455;-89
2023/05/09 11:48:29;;;;;;;11.03;7.07;;;;;;;;;;4980145;28;20823;-88
2023/05/09 11:50:55;;;;;;;16.60;8.47;;;;;;;;;;4973032;28;20454;-88
2023/05/09 11:53:21;;;;;;;13.53;8.80;;;;;;;;;;4974061;28;20452;-86
2023/05/09 11:55:48;;;;;;;11.00;6.90;;;;;;;;;;4975356;28;20533;-88
2023/05/09 11:58:14;;;;;;;13.50;7.43;;;;;;;;;;4981462;28;20530;-87
2023/05/09 12:00:44;;;;;;;11.43;7.13;;;24.00;99.90;;;;;;4968799;28;20448;-86
2023/05/09 12:03:11;;;;;;;9.13;6.90;;;;;;;;;;4975517;28;20465;-87
2023/05/09 12:05:41;;;;;;;8.23;6.03;;;24.50;99.90;;;;;;4975030;28;20448;-87
2023/05/09 12:08:08;;;;;;;9.23;7.00;;;24.70;99.90;;;;;;4975290;28;20437;-86
2023/05/09 12:10:37;;;;;;;9.77;7.27;;;24.60;99.90;;;;;;4975177;28;20454;-86
2023/05/09 12:13:03;;;;;;;11.23;5.77;;;;;;;;;;4970038;28;20557;-87
2023/05/09 12:15:29;;;;;;;10.50;6.17;;;;;;;;;;4962795;28;21102;-86
2023/05/09 12:18:03;;;;;;;7.53;5.63;;;24.20;99.90;;;;;;4972469;28;20716;-87
2023/05/09 12:20:51;;;;;;;5.77;4.97;;;23.90;99.90;;;;;;4973719;28;20818;-88
2023/05/09 12:23:17;;;;;;;11.50;6.40;;;;;;;;;;4974987;28;20470;-87
2023/05/09 12:25:47;;;;;;;9.40;5.60;;;23.80;99.90;;;;;;4978769;28;20463;-86
2023/05/09 12:28:13;;;;;;;6.20;5.20;;;;;;;;;;4974412;28;20453;-85
2023/05/09 12:30:39;;;;;;;7.60;5.83;;;;;;;;;;4970193;28;20495;-86
2023/05/09 12:33:06;;;;;;;7.33;5.27;;;;;;;;;;4978584;28;20489;-86
2023/05/09 12:35:34;;;;;;;9.33;6.13;;;;;;;;;;4970081;28;20505;-87
2023/05/09 12:38:00;;;;;;;8.30;6.57;;;;;;;;;;4970037;28;20454;-88
2023/05/09 12:40:26;;;;;;;8.70;6.03;;;;;;;;;;4976478;28;20426;-87
2023/05/09 12:42:56;;;;;;;7.00;4.90;;;;;;;;;;4974111;28;20451;-86
2023/05/09 12:45:22;;;;;;;10.60;7.20;;;;;;;;;;4973159;28;20517;-87
2023/05/09 12:47:50;;;;;;;9.57;7.17;;;24.60;99.90;;;;;;4975323;28;20955;-86
2023/05/09 12:50:16;;;;;;;10.20;6.53;;;;;;;;;;4971454;28;20443;-86
2023/05/09 12:52:45;;;;;;;7.63;6.03;;;;;;;;;;4968285;28;20464;-88
2023/05/09 12:55:12;;;;;;;8.17;5.40;;;24.90;99.90;;;;;;4970568;28;20460;-87
2023/05/09 12:57:39;;;;;;;7.70;6.00;;;23.90;99.90;;;;;;4978238;28;20440;-87
2023/05/09 13:00:08;;;;;;;7.40;5.87;;;23.40;99.90;;;;;;4974989;28;20959;-85
2023/05/09 13:02:34;;;;;;;10.20;5.40;;;23.50;99.90;;;;;;4975024;28;20469;-88
2023/05/09 13:05:06;;;;;;;6.67;5.20;;;23.90;99.90;;;;;;4973443;28;20443;-88
2023/05/09 13:07:38;;;;;;;9.10;5.80;;;24.20;99.90;;;;;;4972954;28;20434;-87
2023/05/09 13:10:10;;;;;;;9.77;6.03;;;24.50;99.90;;;;;;4968846;28;20455;-86
2023/05/09 13:12:37;;;;;;;9.73;5.37;;;24.80;99.90;;;;;;4971171;28;20467;-84
2023/05/09 13:15:03;;;;;;;6.17;5.47;;;;;;;;;;4978640;28;20434;-85
2023/05/09 13:17:29;;;;;;;5.97;4.60;;;;;;;;;;4977445;28;20449;-86
2023/05/09 13:19:55;;;;;;;5.10;4.60;;;;;;;;;;4971635;28;20431;-86
2023/05/09 13:22:21;;;;;;;10.67;5.97;;;;;;;;;;4972830;28;20547;-87
2023/05/09 13:24:47;;;;;;;7.23;5.30;;;;;;;;;;4966457;28;21697;-86
2023/05/09 13:27:13;;;;;;;7.70;5.60;;;;;;;;;;4968702;28;20465;-85
2023/05/09 13:29:39;;;;;;;7.00;5.30;;;;;;;;;;4971648;28;20505;-86
2023/05/09 13:32:06;;;;;;;5.70;4.87;;;;;;;;;;4968973;28;20464;-88
2023/05/09 13:34:31;;;;;;;7.40;4.90;;;;;;;;;;4970531;28;20560;-84
2023/05/09 13:36:57;;;;;;;6.07;4.13;;;;;;;;;;4966778;28;20589;-84
2023/05/09 13:39:23;;;;;;;7.20;4.87;;;;;;;;;;4974590;28;20442;-84
2023/05/09 13:41:51;;;;;;;6.73;5.13;;;;;;;;;;4985206;28;20463;-85
2023/05/09 13:44:17;;;;;;;6.80;4.23;;;;;;;;;;4965714;28;20621;-84
2023/05/09 13:46:44;;;;;;;6.03;4.47;;;23.00;99.90;;;;;;4958709;28;21151;-85